Time;durP1;ratioP1;P1;durP2;ratioP2;P2;SDS_P1;SDS_P2;PMS_P1;PMS_P2;Temp;Humidity;BMP_temperature;BMP_pressure;BME280_temperature;BME280_humidity;BME280_pressure;Samples;Min_cycle;Max_cycle;Signal;HPM_P1;HPM_P2
2022/11/30 00:01:15;;;;;;;;;25.75;23.75;;;;;9.96;66.67;101479.78;5075017;28;45667;-75
2022/11/30 00:03:41;;;;;;;;;27.50;24.50;;;;;9.93;66.73;101476.50;5074552;28;45890;-75
2022/11/30 00:06:09;;;;;;;;;28.50;24.75;;;;;9.87;66.79;101468.97;5074879;28;45483;-76
2022/11/30 00:08:35;;;;;;;;;27.50;22.25;;;;;9.85;66.96;101473.44;5074721;28;45861;-75
2022/11/30 00:11:07;;;;;;;;;27.25;23.50;;;;;9.82;66.78;101469.22;5074519;28;45704;-75
2022/11/30 00:13:32;;;;;;;;;27.50;24.25;;;;;9.80;67.01;101465.84;5074458;28;47274;-74
2022/11/30 00:19:19;;;;;;;;;25.25;21.75;;;;;9.80;67.12;101467.59;5074488;28;45542;-74
2022/11/30 00:21:45;;;;;;;;;24.00;20.75;;;;;9.74;67.23;101453.09;5074519;28;46506;-75
2022/11/30 00:24:10;;;;;;;;;25.25;22.00;;;;;9.75;67.04;101460.00;5073797;28;46241;-74
2022/11/30 00:26:36;;;;;;;;;28.75;24.75;;;;;9.75;67.00;101462.63;5073834;28;45682;-74
2022/11/30 00:29:01;;;;;;;;;25.50;21.75;;;;;9.68;67.09;101458.66;5074392;28;45702;-75
2022/11/30 00:34:49;;;;;;;;;22.00;20.00;;;;;9.66;67.11;101452.66;5073916;28;46180;-73
2022/11/30 00:37:14;;;;;;;;;27.50;20.00;;;;;9.64;67.11;101450.13;5074416;28;45751;-74
2022/11/30 00:39:40;;;;;;;;;19.75;17.75;;;;;9.66;67.00;101452.66;5074411;28;45698;-74
2022/11/30 00:42:05;;;;;;;;;28.00;24.50;;;;;9.65;67.19;101453.59;5074083;28;46311;-75
2022/11/30 00:44:30;;;;;;;;;25.75;21.50;;;;;9.63;67.28;101452.81;5055817;28;48727;-75
2022/11/30 00:46:56;;;;;;;;;27.00;22.75;;;;;9.63;67.31;101458.03;5074120;28;45700;-77
2022/11/30 00:49:23;;;;;;;;;32.25;21.25;;;;;9.54;67.51;101442.84;5074411;28;45734;-75
2022/11/30 00:51:48;;;;;;;;;26.25;23.00;;;;;9.54;67.58;101437.63;5073831;28;48135;-75
2022/11/30 00:54:13;;;;;;;;;29.75;25.50;;;;;9.58;67.37;101442.59;5074204;28;45471;-75
2022/11/30 00:56:39;;;;;;;;;31.50;23.25;;;;;9.51;67.23;101432.53;5074463;28;45536;-75
2022/11/30 00:59:04;;;;;;;;;30.75;26.00;;;;;9.50;67.40;101431.69;5073796;28;45680;-75
2022/11/30 01:04:51;;;;;;;;;36.00;27.75;;;;;9.52;67.50;101439.47;5062353;28;46328;-75
2022/11/30 01:07:16;;;;;;;;;34.50;25.25;;;;;9.50;67.35;101441.34;5073849;28;45644;-75
2022/11/30 01:09:42;;;;;;;;;31.00;26.75;;;;;9.51;67.53;101440.38;5073848;28;45527;-75
2022/11/30 01:12:07;;;;;;;;;31.50;27.50;;;;;9.49;67.65;101444.88;5073808;28;45810;-75
2022/11/30 01:14:32;;;;;;;;;28.25;23.75;;;;;9.53;67.68;101452.47;5073839;28;45590;-75
2022/11/30 01:20:20;;;;;;;;;23.50;17.75;;;;;9.53;67.37;101451.63;5073429;28;45564;-75
2022/11/30 01:22:45;;;;;;;;;35.25;25.25;;;;;9.49;67.37;101447.47;5073740;28;45987;-75
2022/11/30 01:25:11;;;;;;;;;26.25;23.75;;;;;9.45;67.43;101435.47;5073708;28;45996;-75
2022/11/30 01:27:36;;;;;;;;;23.25;16.75;;;;;9.46;67.57;101438.00;5073838;28;45575;-76
2022/11/30 01:30:02;;;;;;;;;27.25;19.75;;;;;9.50;67.46;101441.34;5073560;28;45499;-75
2022/11/30 01:32:27;;;;;;;;;20.25;17.00;;;;;9.50;67.63;101451.78;5073518;28;48599;-75
2022/11/30 01:34:53;;;;;;;;;27.50;24.75;;;;;9.49;67.60;101452.72;5073657;28;45988;-75
2022/11/30 01:37:18;;;;;;;;;28.25;20.50;;;;;9.46;68.16;101451.09;5076445;28;45648;-76
2022/11/30 01:39:44;;;;;;;;;29.50;25.50;;;;;9.43;67.77;101443.41;5076932;28;45793;-75
2022/11/30 01:42:15;;;;;;;;;31.25;22.75;;;;;9.37;67.95;101440.28;5076492;28;45620;-75
2022/11/30 01:44:47;;;;;;;;;30.00;23.50;;;;;9.41;67.86;101453.09;5076965;28;47130;-74
2022/11/30 01:50:35;;;;;;;;;27.75;24.00;;;;;9.39;67.84;101462.81;5076799;28;45519;-75
2022/11/30 01:53:01;;;;;;;;;31.75;26.00;;;;;9.33;67.91;101450.06;5077071;28;45557;-75
2022/11/30 01:55:33;;;;;;;;;24.75;21.00;;;;;9.35;68.04;101453.44;5076975;28;46084;-75
2022/11/30 01:58:04;;;;;;;;;31.25;24.00;;;;;9.35;68.26;101453.44;5076693;28;45606;-75
2022/11/30 02:00:30;;;;;;;;;28.25;21.50;;;;;9.33;67.79;101446.59;5076883;28;45711;-75
2022/11/30 02:03:18;;;;;;;;;26.50;21.00;;;;;9.29;67.87;101445.91;5076641;28;46385;-76
2022/11/30 02:05:44;;;;;;;;;25.50;20.25;;;;;9.30;68.02;101444.13;5076430;28;46105;-75
2022/11/30 02:08:10;;;;;;;;;24.75;22.50;;;;;9.30;68.08;101452.81;5076683;28;45731;-75
2022/11/30 02:10:39;;;;;;;;;24.75;22.50;;;;;9.25;68.15;101447.84;5076384;28;45700;-75
2022/11/30 02:13:13;;;;;;;;;29.50;23.25;;;;;9.28;68.09;101446.84;5058039;28;47457;-74
2022/11/30 02:16:05;;;;;;;;;25.75;21.25;;;;;9.27;68.09;101445.16;5076306;28;46118;-75
2022/11/30 02:18:45;;;;;;;;;29.00;26.00;;;;;9.26;68.17;101446.91;5076363;28;45921;-75
2022/11/30 02:21:23;;;;;;;;;25.25;21.75;;;;;9.26;67.89;101451.31;5076654;28;46051;-75
2022/11/30 02:24:10;;;;;;;;;31.50;24.75;;;;;9.27;67.86;101446.00;5076695;28;45569;-74
2022/11/30 02:26:48;;;;;;;;;26.25;21.75;;;;;9.30;67.86;101451.97;5076580;28;46291;-74
2022/11/30 02:29:24;;;;;;;;;21.25;19.50;;;;;9.31;67.85;101448.44;5076240;28;45834;-75
2022/11/30 02:32:05;;;;;;;;;30.75;21.75;;;;;9.32;67.71;101450.13;5076336;28;45559;-76
2022/11/30 02:34:34;;;;;;;;;23.25;20.25;;;;;9.32;67.66;101450.13;5076575;28;45740;-74
2022/11/30 02:37:00;;;;;;;;;19.00;15.75;;;;;9.35;67.73;101452.56;5057804;28;47345;-74
2022/11/30 02:39:26;;;;;;;;;21.00;18.50;;;;;9.34;67.28;101450.91;5041223;28;45695;-75
2022/11/30 02:41:51;;;;;;;;;29.25;24.75;;;;;9.35;67.41;101457.81;5076371;28;45557;-74
2022/11/30 02:44:20;;;;;;;;;20.00;17.75;;;;;9.27;67.43;101439.94;5075914;28;46346;-75
2022/11/30 02:47:06;;;;;;;;;25.25;21.50;;;;;9.35;67.09;101453.44;5075939;28;46062;-74
2022/11/30 02:49:48;;;;;;;;;23.00;19.75;;;;;9.33;67.20;101444.00;5075807;28;45547;-75
2022/11/30 02:52:18;;;;;;;;;20.00;17.00;;;;;9.31;66.97;101443.22;5076351;28;45713;-75
2022/11/30 02:54:43;;;;;;;;;15.00;12.00;;;;;9.34;66.80;101459.56;5057414;28;47848;-75
2022/11/30 02:57:10;;;;;;;;;19.00;16.25;;;;;9.25;66.76;101432.16;5075715;28;46949;-75
2022/11/30 02:59:36;;;;;;;;;13.75;11.75;;;;;9.28;66.73;101446.84;5075630;28;45641;-75
2022/11/30 03:02:01;;;;;;;;;22.50;16.75;;;;;9.30;66.81;101446.75;5075346;28;45604;-76
2022/11/30 03:04:27;;;;;;;;;22.50;16.75;;;;;9.30;66.76;101452.81;5075418;28;47674;-75
2022/11/30 03:06:52;;;;;;;;;17.25;16.00;;;;;9.26;66.83;101446.91;5057092;28;46359;-75
2022/11/30 03:09:18;;;;;;;;;19.50;16.75;;;;;9.31;66.72;101458.91;5075516;28;45634;-76
2022/11/30 03:11:43;;;;;;;;;16.75;14.75;;;;;9.28;66.68;101455.50;5075849;28;45484;-75
2022/11/30 03:14:08;;;;;;;;;20.25;15.25;;;;;9.22;66.71;101460.22;5076004;28;46704;-76
2022/11/30 03:16:36;;;;;;;;;19.00;16.75;;;;;9.25;66.67;101460.91;5075274;28;46030;-75
2022/11/30 03:19:01;;;;;;;;;16.00;14.50;;;;;9.25;66.64;101460.06;5075418;28;45721;-75
2022/11/30 03:21:27;;;;;;;;;18.25;17.00;;;;;9.23;66.56;101456.69;5057431;28;45722;-75
2022/11/30 03:23:52;;;;;;;;;22.75;19.75;;;;;9.19;66.81;101460.38;5075146;28;45609;-75
2022/11/30 03:26:17;;;;;;;;;21.25;15.00;;;;;9.14;66.43;101451.94;5075289;28;47276;-75
2022/11/30 03:28:43;;;;;;;;;19.00;15.00;;;;;9.20;66.86;101469.91;5075524;28;45599;-74
2022/11/30 03:31:12;;;;;;;;;15.75;13.25;;;;;9.19;66.70;101468.22;5075525;28;45718;-76
2022/11/30 03:36:59;;;;;;;;;12.25;12.00;;;;;9.19;66.66;101463.00;5075309;28;46302;-75
2022/11/30 03:39:25;;;;;;;;;15.50;14.00;;;;;9.20;66.59;101472.53;5056877;28;45783;-75
2022/11/30 03:41:51;;;;;;;;;16.25;14.75;;;;;9.17;66.66;101459.63;5075153;28;45760;-76
2022/11/30 03:44:17;;;;;;;;;17.00;16.50;;;;;9.18;66.66;101479.59;5075121;28;46256;-74
2022/11/30 03:46:42;;;;;;;;;13.50;12.75;;;;;9.15;66.60;101471.91;5075376;28;46103;-75
2022/11/30 03:49:08;;;;;;;;;17.25;13.50;;;;;9.15;66.79;101478.00;5074914;28;45698;-76
2022/11/30 03:51:33;;;;;;;;;13.75;13.25;;;;;9.14;66.82;101480.69;5075108;28;45523;-76
2022/11/30 03:53:58;;;;;;;;;13.00;12.00;;;;;9.12;66.78;101493.00;5074916;28;46374;-74
2022/11/30 03:56:24;;;;;;;;;15.50;14.75;;;;;9.06;66.90;101477.63;5074884;28;46317;-76
2022/11/30 03:58:50;;;;;;;;;17.00;17.00;;;;;9.10;67.16;101489.63;5074716;28;45642;-74
2022/11/30 04:01:21;;;;;;;;;18.00;15.50;;;;;9.10;67.09;101494.84;5074861;28;45589;-74
2022/11/30 04:07:21;;;;;;;;;13.75;11.00;;;;;9.03;66.94;101501.28;5066763;28;45807;-75
2022/11/30 04:09:46;;;;;;;;;12.00;11.50;;;;;8.98;67.07;101501.53;5074710;28;46099;-75
2022/11/30 04:12:12;;;;;;;;;17.25;15.00;;;;;8.94;67.09;101502.59;5074883;28;45456;-74
2022/11/30 04:14:37;;;;;;;;;19.75;15.50;;;;;8.89;67.33;101495.91;5074648;28;45494;-75
2022/11/30 04:17:02;;;;;;;;;16.75;15.00;;;;;8.85;67.55;101511.72;5074804;28;45544;-75
2022/11/30 04:19:28;;;;;;;;;16.25;15.00;;;;;8.84;67.50;101512.69;5074495;28;45550;-78
2022/11/30 04:21:53;;;;;;;;;13.75;12.00;;;;;8.79;67.35;101509.44;5075090;28;45476;-76
2022/11/30 04:24:21;;;;;;;;;19.00;14.00;;;;;8.77;67.34;101508.66;5074790;28;45483;-75
2022/11/30 04:26:47;;;;;;;;;13.25;10.25;;;;;8.73;67.53;101514.97;5074655;28;46044;-74
2022/11/30 04:29:12;;;;;;;;;15.50;11.00;;;;;8.66;67.61;101515.34;5074197;28;45601;-75
2022/11/30 04:31:37;;;;;;;;;10.50;10.50;;;;;8.61;67.61;101517.31;5073832;28;45887;-74
2022/11/30 04:37:24;;;;;;;;;19.25;11.00;;;;;8.54;67.76;101516.75;5073300;28;46208;-75
2022/11/30 04:39:50;;;;;;;;;11.00;9.75;;;;;8.48;67.67;101511.84;5073009;28;45763;-75
2022/11/30 04:42:15;;;;;;;;;11.00;10.75;;;;;8.48;68.08;101517.06;5073471;28;45642;-74
2022/11/30 04:44:40;;;;;;;;;10.75;9.75;;;;;8.46;67.88;101518.91;5073594;28;46724;-76
2022/11/30 04:47:06;;;;;;;;;13.25;10.50;;;;;8.37;67.91;101514.09;5073039;28;46115;-73
2022/11/30 04:52:53;;;;;;;;;13.50;11.00;;;;;8.38;68.12;101537.53;5073221;28;45620;-76
2022/11/30 04:55:19;;;;;;;;;13.25;11.00;;;;;8.33;68.19;101523.00;5073162;28;45620;-75
2022/11/30 04:57:45;;;;;;;;;17.00;13.50;;;;;8.35;68.16;101535.09;5073278;28;45955;-74
2022/11/30 05:00:13;;;;;;;;;13.00;10.75;;;;;8.33;68.13;101528.22;5072784;28;45575;-77
2022/11/30 05:02:38;;;;;;;;;10.00;9.00;;;;;8.31;68.26;101530.91;5055217;28;45760;-74
2022/11/30 05:08:25;;;;;;;;;13.50;13.00;;;;;8.27;68.15;101536.31;5061051;28;45775;-76
2022/11/30 05:10:52;;;;;;;;;16.50;13.00;;;;;8.25;68.10;101536.41;5072232;28;45770;-75
2022/11/30 05:13:18;;;;;;;;;12.75;9.00;;;;;8.25;68.11;101533.78;5073217;28;45663;-74
2022/11/30 05:15:44;;;;;;;;;12.75;11.75;;;;;8.23;68.31;101532.16;5072423;28;46584;-76
2022/11/30 05:18:09;;;;;;;;;11.00;10.00;;;;;8.24;68.24;101534.72;5072494;28;46356;-76
2022/11/30 05:20:34;;;;;;;;;13.00;10.50;;;;;8.24;67.93;101526.88;5072787;28;45555;-74
2022/11/30 05:23:00;;;;;;;;;11.50;8.50;;;;;8.23;68.41;101521.72;5073363;28;45722;-76
2022/11/30 05:25:25;;;;;;;;;9.00;7.00;;;;;8.18;67.94;101516.72;5074037;28;45633;-75
2022/11/30 05:27:50;;;;;;;;;9.00;7.50;;;;;8.18;67.96;101519.31;5075006;28;46123;-75
2022/11/30 05:30:16;;;;;;;;;6.25;5.75;;;;;8.20;67.74;101521.88;5072295;28;45810;-75
2022/11/30 05:32:41;;;;;;;;;5.00;3.00;;;;;8.17;67.69;101522.84;5072647;28;46041;-76
2022/11/30 05:38:29;;;;;;;;;5.75;5.00;;;;;8.11;67.46;101524.88;5072219;28;46169;-74
2022/11/30 05:41:01;;;;;;;;;7.50;6.00;;;;;8.11;67.63;101525.72;5072473;28;46000;-75
2022/11/30 05:43:27;;;;;;;;;5.75;5.75;;;;;8.11;67.85;101527.50;5073027;28;45698;-75
2022/11/30 05:46:03;;;;;;;;;6.00;5.00;;;;;8.00;67.64;101510.56;5072626;28;46621;-75
2022/11/30 05:48:42;;;;;;;;;6.50;5.25;;;;;8.07;67.46;101531.19;5071875;28;47330;-77
2022/11/30 05:51:14;;;;;;;;;5.50;4.50;;;;;8.01;67.58;101524.47;5072681;28;46135;-75
2022/11/30 05:53:40;;;;;;;;;6.50;6.25;;;;;8.04;67.50;101523.50;5072923;28;45937;-74
2022/11/30 05:56:08;;;;;;;;;5.75;5.25;;;;;8.04;67.49;101531.31;5072113;28;47348;-76
2022/11/30 05:58:34;;;;;;;;;7.00;6.75;;;;;7.93;67.63;101509.19;5072221;28;47247;-74
2022/11/30 06:01:00;;;;;;;;;9.75;9.00;;;;;7.92;67.37;101519.69;5072309;28;45642;-76
2022/11/30 06:09:51;;;;;;;;;6.25;6.25;;;;;7.87;67.72;101519.91;5067462;28;45780;-76
2022/11/30 06:12:17;;;;;;;;;9.25;8.50;;;;;7.88;67.99;101528.56;5072433;28;45672;-76
2022/11/30 06:14:42;;;;;;;;;9.50;6.75;;;;;7.87;67.91;101522.50;5073024;28;45723;-75
2022/11/30 06:17:08;;;;;;;;;6.25;6.00;;;;;7.86;67.88;101519.94;5072139;28;46332;-75
2022/11/30 06:19:33;;;;;;;;;6.25;5.00;;;;;7.79;67.90;101515.91;5071155;28;46170;-75
2022/11/30 06:21:59;;;;;;;;;5.50;4.00;;;;;7.81;68.29;101521.94;5072020;28;45546;-75
2022/11/30 06:24:24;;;;;;;;;5.75;5.00;;;;;7.78;68.04;101520.28;5075289;28;45654;-75
2022/11/30 06:26:50;;;;;;;;;8.00;6.00;;;;;7.79;68.23;101516.78;5075552;28;46531;-75
2022/11/30 06:29:15;;;;;;;;;7.25;6.50;;;;;7.80;68.08;101515.00;5075009;28;47578;-75
2022/11/30 06:31:40;;;;;;;;;8.75;7.00;;;;;7.81;68.13;101514.94;5057141;28;46308;-74
2022/11/30 06:34:06;;;;;;;;;10.00;8.50;;;;;7.76;68.15;101509.09;5075168;28;45918;-75
2022/11/30 06:36:31;;;;;;;;;7.00;6.75;;;;;7.92;68.01;101524.91;5075016;28;46552;-74
2022/11/30 06:38:57;;;;;;;;;9.50;7.50;;;;;7.94;68.02;101521.28;5074986;28;47366;-74
2022/11/30 06:41:22;;;;;;;;;8.75;8.00;;;;;7.98;68.38;101519.41;5074834;28;45716;-75
2022/11/30 06:43:48;;;;;;;;;8.00;8.00;;;;;8.01;68.09;101519.25;5075390;28;45898;-74
2022/11/30 06:46:13;;;;;;;;;13.75;10.00;;;;;7.98;68.32;101520.25;5075313;28;45768;-76
2022/11/30 06:48:39;;;;;;;;;15.00;10.25;;;;;7.96;68.08;101519.47;5056023;28;48247;-75
2022/11/30 06:54:26;;;;;;;;;7.00;6.00;;;;;8.08;68.24;101530.25;5074790;28;45682;-73
2022/11/30 06:56:51;;;;;;;;;9.50;7.25;;;;;8.11;68.21;101537.94;5074715;28;47296;-76
2022/11/30 06:59:18;;;;;;;;;7.50;7.00;;;;;8.10;68.42;101531.06;5074658;28;46300;-79
2022/11/30 07:01:43;;;;;;;;;14.00;9.75;;;;;8.16;68.36;101539.41;5056682;28;46121;-79
2022/11/30 07:04:08;;;;;;;;;11.25;7.25;;;;;8.19;68.20;101535.84;5075016;28;45851;-78
2022/11/30 07:09:57;;;;;;;;;16.25;13.00;;;;;8.19;68.14;101526.25;5067377;28;45849;-78
2022/11/30 07:12:23;;;;;;;;;13.50;10.75;;;;;8.32;68.29;101544.81;5074876;28;45824;-77
2022/11/30 07:14:55;;;;;;;;;12.50;10.00;;;;;8.34;68.16;101548.19;5075155;28;45917;-77
2022/11/30 07:17:21;;;;;;;;;5.00;5.00;;;;;8.36;68.33;101546.38;5076274;28;47317;-78
2022/11/30 07:19:46;;;;;;;;;12.75;12.00;;;;;8.35;68.26;101552.50;5074818;27;46453;-79
2022/11/30 07:22:13;;;;;;;;;14.75;11.00;;;;;8.36;68.10;101542.00;5074821;28;45638;-79
2022/11/30 07:27:27;;;;;;;;;11.00;9.75;;;;;8.41;68.31;101541.78;5075630;28;46089;-82
2022/11/30 07:29:53;;;;;;;;;17.50;12.25;;;;;8.44;68.00;101546.84;5056898;28;48102;-79
2022/11/30 07:32:20;;;;;;;;;13.25;11.50;;;;;8.50;68.02;101546.56;5075025;28;45519;-77
2022/11/30 07:38:08;;;;;;;;;15.50;11.25;;;;;8.57;67.91;101565.41;5074659;28;46183;-77
2022/11/30 07:40:33;;;;;;;;;15.75;11.00;;;;;8.51;67.88;101547.41;5074504;28;46541;-80
2022/11/30 07:42:58;;;;;;;;;19.25;15.00;;;;;8.61;67.98;101570.41;5074272;28;45763;-79
2022/11/30 07:45:24;;;;;;;;;17.50;14.75;;;;;8.63;68.03;101573.81;5056859;28;45975;-81
2022/11/30 07:47:49;;;;;;;;;18.25;11.00;;;;;8.67;67.83;101580.56;5073840;28;46629;-80
2022/11/30 07:53:36;;;;;;;;;17.50;13.00;;;;;8.71;67.83;101565.59;5074382;28;45698;-77
2022/11/30 07:56:05;;;;;;;;;11.75;10.50;;;;;8.78;67.49;101580.06;5074274;28;45732;-79
2022/11/30 07:58:33;;;;;;;;;14.00;12.00;;;;;8.79;67.46;101576.53;5073795;28;47491;-78
2022/11/30 08:01:05;;;;;;;;;20.50;14.00;;;;;8.74;67.40;101566.31;5073998;28;46251;-78
2022/11/30 08:03:31;;;;;;;;;10.50;6.75;;;;;8.76;67.25;101581.88;5074381;28;45812;-81
2022/11/30 08:09:18;;;;;;;;;13.75;12.25;;;;;8.81;67.45;101590.34;5073187;28;46046;-80
2022/11/30 08:11:43;;;;;;;;;15.50;11.75;;;;;8.79;67.31;101585.22;5073857;28;45574;-79
2022/11/30 08:14:12;;;;;;;;;15.00;12.00;;;;;8.85;67.39;101592.72;5074344;28;45484;-79
2022/11/30 08:16:42;;;;;;;;;14.00;11.50;;;;;8.88;67.32;101589.13;5074721;28;45830;-80
2022/11/30 08:19:07;;;;;;;;;17.00;14.00;;;;;8.85;67.35;101587.50;5056346;28;46884;-76
2022/11/30 08:24:54;;;;;;;;;16.25;10.75;;;;;8.98;67.37;101594.75;5075433;28;45971;-79
2022/11/30 08:27:20;;;;;;;;;17.25;15.00;;;;;8.94;67.00;101582.78;5074096;28;45790;-79
2022/11/30 08:29:46;;;;;;;;;18.00;16.25;;;;;8.95;67.09;101593.16;5073318;28;47197;-80
2022/11/30 08:32:11;;;;;;;;;20.75;16.00;;;;;8.99;66.91;101599.06;5055414;28;47383;-80
2022/11/30 08:34:37;;;;;;;;;15.75;14.00;;;;;8.94;66.86;101595.84;5073866;28;45757;-79
2022/11/30 08:40:24;;;;;;;;;18.00;16.50;;;;;9.00;66.80;101598.16;5073770;28;45948;-76
2022/11/30 08:42:49;;;;;;;;;20.75;16.00;;;;;8.95;66.87;101593.16;5074412;28;46226;-78
2022/11/30 08:45:15;;;;;;;;;16.50;13.50;;;;;8.94;66.81;101601.91;5073695;28;45860;-78
2022/11/30 08:47:40;;;;;;;;;18.25;16.00;;;;;9.01;66.91;101602.47;5055124;28;45891;-77
2022/11/30 08:50:06;;;;;;;;;18.50;15.25;;;;;8.94;66.77;101601.06;5072760;28;46399;-79
2022/11/30 08:52:31;;;;;;;;;15.25;14.75;;;;;8.94;66.90;101598.44;5072828;28;45728;-79
2022/11/30 08:54:56;;;;;;;;;21.00;16.25;;;;;8.92;66.95;101597.66;5073278;28;45673;-78
2022/11/30 08:57:22;;;;;;;;;17.75;16.00;;;;;9.01;66.79;101607.69;5055176;28;45951;-79
2022/11/30 08:59:47;;;;;;;;;14.00;13.00;;;;;9.00;66.88;101608.63;5072500;28;45804;-80
2022/11/30 09:02:16;;;;;;;;;22.00;16.25;;;;;8.99;67.00;101610.38;5072940;28;46349;-78
2022/11/30 09:04:42;;;;;;;;;20.25;16.25;;;;;8.98;67.00;101608.69;5072843;28;45752;-80
2022/11/30 09:07:08;;;;;;;;;21.25;16.00;;;;;8.98;67.09;101613.91;5073084;28;45818;-78
2022/11/30 09:09:35;;;;;;;;;19.00;16.50;;;;;8.90;66.88;101594.31;5071994;28;46450;-79
2022/11/30 09:12:01;;;;;;;;;19.00;15.50;;;;;8.88;66.69;101591.75;5073144;28;46413;-80
2022/11/30 09:14:26;;;;;;;;;20.00;15.50;;;;;8.96;66.79;101604.47;5073529;28;45639;-79
2022/11/30 09:16:53;;;;;;;;;17.25;15.25;;;;;8.94;66.90;101607.16;5074227;28;45774;-79
2022/11/30 09:19:20;;;;;;;;;20.25;15.75;;;;;8.97;66.78;101614.81;5072395;28;47405;-79
2022/11/30 09:21:45;;;;;;;;;17.00;12.25;;;;;8.96;66.98;101626.19;5072710;28;46112;-80
2022/11/30 09:24:11;;;;;;;;;20.50;19.75;;;;;8.96;66.59;101620.97;5073688;28;46051;-77
2022/11/30 09:26:36;;;;;;;;;19.50;15.50;;;;;8.97;66.87;101621.81;5072762;28;45988;-81
2022/11/30 09:29:02;;;;;;;;;18.00;15.50;;;;;8.98;66.84;101628.75;5071789;28;46325;-78
2022/11/30 09:31:29;;;;;;;;;20.00;16.00;;;;;9.01;66.75;101631.22;5072497;28;46308;-80
2022/11/30 09:33:56;;;;;;;;;23.50;17.00;;;;;8.83;66.81;101596.34;5072945;28;45645;-80
2022/11/30 09:39:43;;;;;;;;;16.75;15.25;;;;;9.09;66.46;101634.28;5071980;28;45831;-80
2022/11/30 09:42:34;;;;;;;;;19.00;16.25;;;;;9.10;66.61;101642.06;5054343;28;46101;-81
2022/11/30 09:45:10;;;;;;;;;21.00;15.75;;;;;9.05;66.37;101625.78;5072370;28;45936;-78
2022/11/30 09:47:48;;;;;;;;;19.25;15.25;;;;;9.10;66.60;101631.63;5073027;28;45579;-80
2022/11/30 09:50:18;;;;;;;;;16.50;15.00;;;;;9.10;66.52;101628.16;5072199;28;46630;-80
2022/11/30 09:56:24;;;;;;;;;21.00;16.00;;;;;9.09;66.47;101629.91;5072559;28;45918;-80
2022/11/30 09:58:57;;;;;;;;;22.75;19.25;;;;;9.11;66.34;101629.84;5077686;28;45982;-80
2022/11/30 10:01:23;;;;;;;;;24.00;22.00;;;;;9.01;66.42;101612.94;5080005;28;46551;-82
2022/11/30 10:03:48;;;;;;;;;20.25;19.00;;;;;9.08;66.41;101619.53;5078308;28;45920;-79
2022/11/30 10:13:50;;;;;;;;;21.25;16.00;;;;;9.14;66.25;101622.69;5035730;28;45726;-79
2022/11/30 10:16:53;;;;;;;;;22.75;19.75;;;;;9.17;66.18;101626.94;5035324;28;46510;-78
2022/11/30 10:19:46;;;;;;;;;20.00;15.75;;;;;9.20;66.39;101626.78;5035106;28;45638;-79
2022/11/30 10:22:46;;;;;;;;;27.00;19.00;;;;;9.25;66.08;101627.41;5035472;28;45675;-80
2022/11/30 10:25:27;;;;;;;;;24.25;20.50;;;;;9.26;66.26;101627.34;5035134;28;45951;-80
2022/11/30 10:28:07;;;;;;;;;28.25;21.75;;;;;9.29;66.24;101618.47;5035060;28;46864;-79
2022/11/30 10:30:35;;;;;;;;;26.25;19.25;;;;;9.34;65.90;101626.94;5035063;28;46061;-77
2022/11/30 10:33:14;;;;;;;;;24.75;21.00;;;;;9.36;66.05;101624.25;5034367;28;45956;-81
2022/11/30 10:35:43;;;;;;;;;24.00;19.75;;;;;9.32;66.02;101610.50;5035438;28;46588;-76
2022/11/30 10:38:24;;;;;;;;;25.00;23.50;;;;;9.38;65.99;101628.50;5033478;28;47250;-77
2022/11/30 10:40:55;;;;;;;;;24.75;20.00;;;;;9.39;66.19;101621.50;5035272;28;45925;-78
2022/11/30 10:43:28;;;;;;;;;23.50;20.00;;;;;9.39;66.15;101618.88;5034826;28;45609;-76
2022/11/30 10:45:54;;;;;;;;;23.50;20.75;;;;;9.09;66.13;101569.78;5035384;28;46435;-78
2022/11/30 10:48:41;;;;;;;;;26.50;20.00;;;;;9.34;66.09;101603.41;5034568;28;47200;-79
2022/11/30 10:51:11;;;;;;;;;22.25;20.00;;;;;9.42;65.72;101619.56;5034444;28;45926;-78
2022/11/30 10:53:37;;;;;;;;;32.25;19.25;;;;;9.42;65.32;101623.94;5034534;28;45606;-77
2022/11/30 10:56:07;;;;;;;;;21.25;19.00;;;;;9.41;65.61;101614.41;5034775;28;45739;-78
2022/11/30 10:58:52;;;;;;;;;26.50;21.00;;;;;9.39;65.96;101597.97;5032656;28;47490;-79
2022/11/30 11:01:45;;;;;;;;;30.75;25.50;;;;;9.39;65.67;101597.97;5034564;28;45726;-79
2022/11/30 11:04:11;;;;;;;;;24.25;18.25;;;;;9.38;65.75;101604.97;5034368;28;45554;-82
2022/11/30 11:09:48;;;;;;;;;28.75;21.50;;;;;9.42;65.60;101600.41;5033023;28;45770;-78
2022/11/30 11:12:33;;;;;;;;;27.75;19.75;;;;;9.42;65.77;101606.50;5059326;28;45664;-79
2022/11/30 11:15:19;;;;;;;;;23.50;20.00;;;;;9.44;65.71;101603.81;5074822;28;45605;-78
2022/11/30 11:17:45;;;;;;;;;28.75;21.75;;;;;9.42;65.80;101596.03;5074507;28;45837;-80
2022/11/30 11:20:30;;;;;;;;;30.00;24.25;;;;;9.49;65.61;101594.81;5074840;28;46406;-78
2022/11/30 11:26:21;;;;;;;;;20.00;15.75;;;;;9.49;65.69;101597.41;5074589;28;45741;-80
2022/11/30 11:28:49;;;;;;;;;24.25;20.75;;;;;9.50;65.58;101593.03;5055797;28;45902;-79
2022/11/30 11:31:35;;;;;;;;;23.25;21.00;;;;;9.51;65.74;101600.78;5074504;28;46095;-79
2022/11/30 11:34:01;;;;;;;;;27.75;21.25;;;;;9.48;65.55;101587.03;5074283;28;45720;-82
2022/11/30 11:36:30;;;;;;;;;23.00;18.00;;;;;9.54;65.71;101594.56;5075577;28;45744;-81
2022/11/30 11:42:20;;;;;;;;;28.00;22.25;;;;;9.57;65.24;101592.63;5074032;28;45680;-80
2022/11/30 11:44:53;;;;;;;;;22.75;20.00;;;;;9.55;65.19;101593.66;5074559;28;45586;-79
2022/11/30 11:47:37;;;;;;;;;21.00;17.75;;;;;9.41;65.37;101567.34;5074256;28;45582;-77
2022/11/30 11:50:11;;;;;;;;;22.75;18.25;;;;;9.54;65.39;101579.72;5073796;28;46661;-80
2022/11/30 11:52:37;;;;;;;;;27.25;21.00;;;;;9.55;65.30;101575.34;5073906;28;45514;-77
2022/11/30 11:55:09;;;;;;;;;26.75;21.50;;;;;9.52;65.58;101568.47;5074042;28;45853;-76
2022/11/30 11:57:43;;;;;;;;;23.25;20.00;;;;;9.61;65.65;101582.84;5074264;28;45786;-77
2022/11/30 12:00:16;;;;;;;;;22.50;19.50;;;;;9.63;65.66;101583.63;5055446;28;46871;-78
2022/11/30 12:02:47;;;;;;;;;28.50;21.75;;;;;9.67;65.44;101586.00;5075294;28;46206;-80
2022/11/30 12:05:31;;;;;;;;;30.00;23.25;;;;;9.73;65.44;101584.84;5076325;28;45679;-78
2022/11/30 12:08:21;;;;;;;;;26.25;19.75;;;;;9.78;65.33;101584.59;5074416;28;45812;-77
2022/11/30 12:11:01;;;;;;;;;21.00;18.00;;;;;9.83;65.21;101582.56;5073589;28;46645;-78
2022/11/30 12:13:47;;;;;;;;;32.25;20.00;;;;;9.85;65.13;101583.34;5074014;28;46288;-78
2022/11/30 12:16:15;;;;;;;;;26.00;22.50;;;;;9.86;65.25;101588.53;5073721;28;45896;-81
2022/11/30 12:19:14;;;;;;;;;25.25;21.00;;;;;9.88;65.23;101573.56;5073778;28;45624;-81
2022/11/30 12:22:11;;;;;;;;;24.00;18.50;;;;;9.89;64.91;101585.72;5072800;28;45809;-81
2022/11/30 12:24:50;;;;;;;;;28.50;18.50;;;;;9.89;65.03;101569.19;5030759;28;45985;-78
2022/11/30 12:27:55;;;;;;;;;25.50;19.75;;;;;9.91;65.19;101575.19;5031013;28;45654;-79
2022/11/30 12:30:27;;;;;;;;;24.25;21.50;;;;;9.90;64.92;101571.72;5031464;28;45983;-81
2022/11/30 12:32:55;;;;;;;;;23.50;20.00;;;;;9.91;64.84;101572.56;5031391;28;46299;-80
2022/11/30 12:35:32;;;;;;;;;20.00;17.50;;;;;9.91;65.02;101576.03;5033029;28;45846;-80
2022/11/30 12:41:39;;;;;;;;;20.50;17.25;;;;;9.92;64.67;101572.50;5034027;28;45924;-80
2022/11/30 12:44:08;;;;;;;;;27.00;21.75;;;;;9.93;64.79;101575.97;5033990;28;45744;-79
2022/11/30 12:46:46;;;;;;;;;21.25;19.00;;;;;9.94;64.73;101582.88;5033098;28;46003;-81
2022/11/30 12:49:19;;;;;;;;;25.25;18.50;;;;;9.87;64.92;101564.03;5032128;28;45949;-80
2022/11/30 12:52:06;;;;;;;;;24.00;20.50;;;;;9.95;64.85;101576.72;5031947;28;46116;-78
2022/11/30 12:58:08;;;;;;;;;20.50;17.00;;;;;9.95;64.77;101574.09;5030096;28;45771;-77
2022/11/30 13:00:40;;;;;;;;;24.50;19.75;;;;;9.89;64.79;101558.72;5037257;28;46074;-78
2022/11/30 13:03:41;;;;;;;;;19.25;17.75;;;;;9.94;65.00;101567.16;5073260;28;45609;-80
2022/11/30 13:06:11;;;;;;;;;23.25;20.00;;;;;9.91;64.81;101557.72;5072935;28;46533;-76
2022/11/30 13:08:44;;;;;;;;;24.50;20.25;;;;;9.93;65.03;101561.06;5072802;28;46152;-80
2022/11/30 13:11:20;;;;;;;;;23.75;17.75;;;;;9.95;64.71;101563.63;5073133;28;45861;-79